createdAt,value
2023-04-01T00:01:47.971Z,8.00
2023-04-01T00:04:14.753Z,8.00
2023-04-01T00:06:41.553Z,8.10
2023-04-01T00:09:08.250Z,8.10
2023-04-01T00:11:35.426Z,8.10
2023-04-01T00:14:02.161Z,8.20
2023-04-01T00:16:28.991Z,8.20
2023-04-01T00:18:55.800Z,8.20
2023-04-01T00:21:23.349Z,8.20
2023-04-01T00:23:51.910Z,8.30
2023-04-01T00:26:21.868Z,8.30
2023-04-01T00:28:49.950Z,8.40
2023-04-01T00:31:17.166Z,8.40
2023-04-01T00:33:44.595Z,8.40
2023-04-01T00:36:15.142Z,8.50
2023-04-01T00:38:43.846Z,8.50
2023-04-01T00:41:15.254Z,8.50
2023-04-01T00:43:49.015Z,8.60
2023-04-01T00:46:16.512Z,8.60
2023-04-01T00:48:49.643Z,8.60
2023-04-01T00:51:24.939Z,8.60
2023-04-01T00:53:54.723Z,8.60
2023-04-01T00:56:28.404Z,8.60
2023-04-01T00:59:11.853Z,8.60
2023-04-01T01:01:38.773Z,8.60
2023-04-01T01:04:05.736Z,8.70
2023-04-01T01:06:56.181Z,8.70
2023-04-01T01:09:53.413Z,8.70
2023-04-01T01:12:25.613Z,8.70
2023-04-01T01:15:16.896Z,8.60
2023-04-01T01:18:21.646Z,8.60
2023-04-01T01:21:12.894Z,8.60
2023-04-01T01:24:15.486Z,8.60
2023-04-01T01:26:54.828Z,8.60
2023-04-01T01:29:21.508Z,8.60
2023-04-01T01:32:09.071Z,8.60
2023-04-01T01:34:54.300Z,8.60
2023-04-01T01:37:25.747Z,8.60
2023-04-01T01:40:04.763Z,8.60
2023-04-01T01:42:36.237Z,8.60
2023-04-01T01:45:06.304Z,8.60
2023-04-01T01:47:36.389Z,8.60
2023-04-01T01:50:05.817Z,8.60
2023-04-01T01:52:32.549Z,8.60
2023-04-01T01:54:59.557Z,8.60
2023-04-01T01:57:37.974Z,8.60
2023-04-01T02:00:14.440Z,8.60
2023-04-01T02:02:48.602Z,8.60
2023-04-01T02:05:25.457Z,8.60
2023-04-01T02:08:22.327Z,8.60
2023-04-01T02:11:22.397Z,8.60
2023-04-01T02:14:28.956Z,8.60
2023-04-01T02:17:06.873Z,8.60
2023-04-01T02:19:48.392Z,8.60
2023-04-01T02:22:22.498Z,8.60
2023-04-01T02:24:54.716Z,8.60
2023-04-01T02:27:22.467Z,8.60
2023-04-01T02:29:49.313Z,8.60
2023-04-01T02:32:18.561Z,8.60
2023-04-01T02:34:45.985Z,8.60
2023-04-01T02:37:14.455Z,8.60
2023-04-01T02:39:41.487Z,8.60
2023-04-01T02:42:08.223Z,8.60
2023-04-01T02:44:35.410Z,8.60
2023-04-01T02:47:02.308Z,8.60
2023-04-01T02:49:29.345Z,8.60
2023-04-01T02:51:56.069Z,8.60
2023-04-01T02:54:22.830Z,8.60
2023-04-01T02:56:49.641Z,8.50
2023-04-01T02:59:16.452Z,8.50
2023-04-01T03:01:43.174Z,8.50
2023-04-01T03:04:09.929Z,8.50
2023-04-01T03:06:36.712Z,8.50
2023-04-01T03:09:04.245Z,8.60
2023-04-01T03:11:30.987Z,8.60
2023-04-01T03:13:57.725Z,8.60
2023-04-01T03:16:24.575Z,8.50
2023-04-01T03:18:53.434Z,8.50
2023-04-01T03:21:24.158Z,8.50
2023-04-01T03:23:51.434Z,8.50
2023-04-01T03:26:19.156Z,8.50
2023-04-01T03:28:45.900Z,8.50
2023-04-01T03:31:13.006Z,8.50
2023-04-01T03:33:40.770Z,8.50
2023-04-01T03:36:08.145Z,8.50
2023-04-01T03:38:36.031Z,8.50
2023-04-01T03:41:03.764Z,8.50
2023-04-01T03:43:30.763Z,8.50
2023-04-01T03:45:58.929Z,8.50
2023-04-01T03:48:26.872Z,8.50
2023-04-01T03:50:53.710Z,8.50
2023-04-01T03:53:20.684Z,8.50
2023-04-01T03:55:47.797Z,8.40
2023-04-01T03:58:14.819Z,8.50
2023-04-01T04:00:41.634Z,8.40
2023-04-01T04:03:08.554Z,8.40
2023-04-01T04:05:35.853Z,8.50
2023-04-01T04:08:03.522Z,8.40
2023-04-01T04:10:30.354Z,8.50
2023-04-01T04:12:57.469Z,8.50
2023-04-01T04:15:24.434Z,8.50
2023-04-01T04:17:51.571Z,8.50
2023-04-01T04:20:18.518Z,8.50
2023-04-01T04:22:45.391Z,8.50
2023-04-01T04:25:12.103Z,8.50
2023-04-01T04:27:39.036Z,8.40
2023-04-01T04:30:08.375Z,8.40
2023-04-01T04:32:35.632Z,8.40
2023-04-01T04:35:03.019Z,8.40
2023-04-01T04:37:29.793Z,8.40
2023-04-01T04:39:56.530Z,8.40
2023-04-01T04:42:23.316Z,8.40
2023-04-01T04:44:50.140Z,8.40
2023-04-01T04:47:16.965Z,8.40
2023-04-01T04:49:43.702Z,8.40
2023-04-01T04:52:10.550Z,8.40
2023-04-01T04:54:43.249Z,8.40
2023-04-01T04:57:10.267Z,8.40
2023-04-01T04:59:37.669Z,8.40
2023-04-01T05:02:04.530Z,8.30
2023-04-01T05:04:35.882Z,8.30
2023-04-01T05:07:02.597Z,8.30
2023-04-01T05:09:29.482Z,8.20
2023-04-01T05:11:56.196Z,8.30
2023-04-01T05:14:22.902Z,8.20
2023-04-01T05:16:50.390Z,8.20
2023-04-01T05:19:17.235Z,8.30
2023-04-01T05:21:43.950Z,8.30
2023-04-01T05:24:10.905Z,8.20
2023-04-01T05:26:38.146Z,8.30
2023-04-01T05:29:06.393Z,8.30
2023-04-01T05:31:33.479Z,8.30
2023-04-01T05:34:00.208Z,8.30
2023-04-01T05:36:26.980Z,8.30
2023-04-01T05:38:57.259Z,8.30
2023-04-01T05:41:23.974Z,8.30
2023-04-01T05:43:50.794Z,8.30
2023-04-01T05:46:17.646Z,8.30
2023-04-01T05:48:44.481Z,8.40
2023-04-01T05:51:15.812Z,8.40
2023-04-01T05:53:43.697Z,8.40
2023-04-01T05:56:10.572Z,8.40
2023-04-01T05:58:38.801Z,8.40
2023-04-01T06:01:15.856Z,8.40
2023-04-01T06:03:43.445Z,8.50
2023-04-01T06:06:17.129Z,8.50
2023-04-01T06:08:44.434Z,8.50
2023-04-01T06:11:52.137Z,8.60
2023-04-01T06:14:50.131Z,8.60
2023-04-01T06:17:50.675Z,8.60
2023-04-01T06:20:55.548Z,8.60
2023-04-01T06:23:46.041Z,8.70
2023-04-01T06:26:38.489Z,8.70
2023-04-01T06:29:30.964Z,8.70
2023-04-01T06:32:17.333Z,8.70
2023-04-01T06:35:09.666Z,8.70
2023-04-01T06:37:57.973Z,8.80
2023-04-01T06:41:01.240Z,8.80
2023-04-01T06:43:49.834Z,8.90
2023-04-01T06:46:45.628Z,9.00
2023-04-01T06:49:50.494Z,9.00
2023-04-01T06:52:49.705Z,9.00
2023-04-01T06:55:34.282Z,9.00
2023-04-01T06:58:06.002Z,9.10
2023-04-01T07:00:47.619Z,9.10
2023-04-01T07:03:34.403Z,9.10
2023-04-01T07:06:06.415Z,9.20
2023-04-01T07:08:39.878Z,9.30
2023-04-01T07:11:12.283Z,9.40
2023-04-01T07:13:59.659Z,9.50
2023-04-01T07:16:40.662Z,9.60
2023-04-01T07:19:30.143Z,9.70
2023-04-01T07:22:06.597Z,9.80
2023-04-01T07:24:40.141Z,9.80
2023-04-01T07:27:12.848Z,9.80
2023-04-01T07:29:39.619Z,9.80
2023-04-01T07:32:25.060Z,9.80
2023-04-01T07:35:16.032Z,9.80
2023-04-01T07:38:23.010Z,9.90
2023-04-01T07:41:23.510Z,9.90
2023-04-01T07:44:00.028Z,10.00
2023-04-01T07:47:00.117Z,10.00
2023-04-01T07:50:11.904Z,10.00
2023-04-01T07:52:48.265Z,10.00
2023-04-01T07:55:42.054Z,10.00
2023-04-01T07:58:34.332Z,10.00
2023-04-01T08:01:49.870Z,10.00
2023-04-01T08:04:34.107Z,10.00
2023-04-01T08:07:19.140Z,10.00
2023-04-01T08:10:23.986Z,10.00
2023-04-01T08:13:44.418Z,10.00
2023-04-01T08:16:29.611Z,10.10
2023-04-01T08:19:05.632Z,10.10
2023-04-01T08:21:46.040Z,10.10
2023-04-01T08:24:31.769Z,10.10
2023-04-01T08:27:21.376Z,10.10
2023-04-01T08:30:03.356Z,10.20
2023-04-01T08:32:38.073Z,10.10
2023-04-01T08:35:40.025Z,10.10
2023-04-01T08:38:16.734Z,10.10
2023-04-01T08:41:36.452Z,10.10
2023-04-01T08:44:14.822Z,10.10
2023-04-01T08:47:21.547Z,10.10
2023-04-01T08:50:18.553Z,10.10
2023-04-01T08:53:15.810Z,10.10
2023-04-01T08:56:07.193Z,10.10
2023-04-01T08:59:28.151Z,10.10
2023-04-01T09:02:39.376Z,10.10
2023-04-01T09:05:42.670Z,10.20
2023-04-01T09:08:43.109Z,10.20
2023-04-01T09:11:53.130Z,10.20
2023-04-01T09:14:54.885Z,10.20
2023-04-01T09:17:52.474Z,10.20
2023-04-01T09:20:43.771Z,10.20
2023-04-01T09:23:33.808Z,10.20
2023-04-01T09:26:22.385Z,10.30
2023-04-01T09:29:14.403Z,10.20
2023-04-01T09:31:53.084Z,10.30
2023-04-01T09:34:40.445Z,10.20
2023-04-01T09:37:22.491Z,10.20
2023-04-01T09:40:18.484Z,10.30
2023-04-01T09:43:05.459Z,10.30
2023-04-01T09:45:52.766Z,10.30
2023-04-01T09:48:44.848Z,10.30
2023-04-01T09:51:46.541Z,10.30
2023-04-01T09:54:36.073Z,10.30
2023-04-01T09:57:54.133Z,10.30
2023-04-01T10:00:51.267Z,10.20
2023-04-01T10:04:18.690Z,10.10
2023-04-01T10:07:13.247Z,10.00
2023-04-01T10:10:15.878Z,9.90
2023-04-01T10:13:15.382Z,9.90
2023-04-01T10:16:33.969Z,9.80
2023-04-01T10:19:45.411Z,9.80
2023-04-01T10:22:33.899Z,9.80
2023-04-01T10:25:19.920Z,9.90
2023-04-01T10:28:31.703Z,9.90
2023-04-01T10:31:47.908Z,9.90
2023-04-01T10:34:58.440Z,9.90
2023-04-01T10:37:54.188Z,9.90
2023-04-01T10:40:48.899Z,9.90
2023-04-01T10:43:43.387Z,10.00
2023-04-01T10:46:43.017Z,9.90
2023-04-01T10:50:05.246Z,9.90
2023-04-01T10:52:55.746Z,9.90
2023-04-01T10:56:16.435Z,9.90
2023-04-01T10:59:13.930Z,9.90
2023-04-01T11:02:30.007Z,9.80
2023-04-01T11:05:32.391Z,9.60
2023-04-01T11:08:30.956Z,9.50
2023-04-01T11:11:18.553Z,9.50
2023-04-01T11:14:09.287Z,9.40
2023-04-01T11:17:03.740Z,9.40
2023-04-01T11:20:03.459Z,9.30
2023-04-01T11:22:45.619Z,9.30
2023-04-01T11:25:56.059Z,9.30
2023-04-01T11:29:01.787Z,9.20
2023-04-01T11:31:57.648Z,9.20
2023-04-01T11:34:58.257Z,9.20
2023-04-01T11:37:52.535Z,9.20
2023-04-01T11:40:44.096Z,9.20
2023-04-01T11:43:33.866Z,9.20
2023-04-01T11:46:46.075Z,9.20
2023-04-01T11:49:45.786Z,9.20
2023-04-01T11:52:39.230Z,9.20
2023-04-01T11:55:42.664Z,9.20
2023-04-01T11:58:54.882Z,9.20
2023-04-01T12:01:57.923Z,9.20
2023-04-01T12:04:57.772Z,9.20
2023-04-01T12:07:53.106Z,9.20
2023-04-01T12:10:31.004Z,9.20
2023-04-01T12:13:51.263Z,9.20
2023-04-01T12:16:26.412Z,9.20
2023-04-01T12:19:28.689Z,9.30
2023-04-01T12:22:27.845Z,9.30
2023-04-01T12:25:26.023Z,9.40
2023-04-01T12:28:26.198Z,9.40
2023-04-01T12:31:14.996Z,9.40
2023-04-01T12:34:23.100Z,9.50
2023-04-01T12:37:30.396Z,9.50
2023-04-01T12:40:25.549Z,9.50
2023-04-01T12:43:35.020Z,9.50
2023-04-01T12:46:42.430Z,9.50
2023-04-01T12:49:32.379Z,9.40
2023-04-01T12:52:15.764Z,9.30
2023-04-01T12:55:16.861Z,9.30
2023-04-01T12:58:36.625Z,9.20
2023-04-01T13:01:21.972Z,9.20
2023-04-01T13:04:47.917Z,9.20
2023-04-01T13:07:34.062Z,9.30
2023-04-01T13:10:32.608Z,9.30
2023-04-01T13:13:42.564Z,9.30
2023-04-01T13:16:23.074Z,9.40
2023-04-01T13:20:02.005Z,9.40
2023-04-01T13:23:07.746Z,9.40
2023-04-01T13:25:56.617Z,9.40
2023-04-01T13:28:53.938Z,9.40
2023-04-01T13:31:58.403Z,9.40
2023-04-01T13:34:54.378Z,9.40
2023-04-01T13:37:57.299Z,9.30
2023-04-01T13:41:01.759Z,9.40
2023-04-01T13:43:39.367Z,9.50
2023-04-01T13:46:18.696Z,9.60
2023-04-01T13:49:13.109Z,9.60
2023-04-01T13:52:28.683Z,9.60
2023-04-01T13:55:40.507Z,9.60
2023-04-01T13:58:12.511Z,9.50
2023-04-01T14:01:13.523Z,9.50
2023-04-01T14:04:21.204Z,9.50
2023-04-01T14:07:01.721Z,9.40
2023-04-01T14:09:48.783Z,9.50
2023-04-01T14:12:33.550Z,9.50
2023-04-01T14:15:24.992Z,9.50
2023-04-01T14:18:51.595Z,9.50
2023-04-01T14:21:34.282Z,9.50
2023-04-01T14:24:34.295Z,9.50
2023-04-01T14:27:21.444Z,9.50
2023-04-01T14:30:39.375Z,9.40
2023-04-01T14:33:37.404Z,9.40
2023-04-01T14:36:58.694Z,9.40
2023-04-01T14:40:18.854Z,9.40
2023-04-01T14:43:09.673Z,9.50
2023-04-01T14:46:09.657Z,9.50
2023-04-01T14:48:51.974Z,9.40
2023-04-01T14:51:39.736Z,9.40
2023-04-01T14:54:37.254Z,9.40
2023-04-01T14:57:15.010Z,9.30
2023-04-01T14:59:50.799Z,9.30
2023-04-01T15:02:47.591Z,9.30
2023-04-01T15:05:34.035Z,9.20
2023-04-01T15:08:21.731Z,9.20
2023-04-01T15:11:17.386Z,9.20
2023-04-01T15:14:18.677Z,9.20
2023-04-01T15:17:01.890Z,9.10
2023-04-01T15:19:40.573Z,9.10
2023-04-01T15:22:45.331Z,9.10
2023-04-01T15:25:44.282Z,9.10
2023-04-01T15:28:44.154Z,9.10
2023-04-01T15:31:40.264Z,9.10
2023-04-01T15:34:17.058Z,9.10
2023-04-01T15:37:20.883Z,9.10
2023-04-01T15:40:07.092Z,9.20
2023-04-01T15:43:06.879Z,9.20
2023-04-01T15:46:03.897Z,9.30
2023-04-01T15:49:12.246Z,9.30
2023-04-01T15:51:59.719Z,9.30
2023-04-01T15:55:21.152Z,9.30
2023-04-01T15:58:05.524Z,9.30
2023-04-01T16:00:53.473Z,9.30
2023-04-01T16:03:42.357Z,9.30
2023-04-01T16:06:35.016Z,9.30
2023-04-01T16:09:35.369Z,9.30
2023-04-01T16:12:31.622Z,9.30
2023-04-01T16:15:19.363Z,9.30
2023-04-01T16:18:03.645Z,9.30
2023-04-01T16:21:03.922Z,9.30
2023-04-01T16:23:44.762Z,9.30
2023-04-01T16:26:37.888Z,9.30
2023-04-01T16:29:47.687Z,9.40
2023-04-01T16:33:06.412Z,9.40
2023-04-01T16:36:11.263Z,9.40
2023-04-01T16:38:48.112Z,9.40
2023-04-01T16:41:21.534Z,9.30
2023-04-01T16:43:56.360Z,9.30
2023-04-01T16:46:37.400Z,9.30
2023-04-01T16:49:12.688Z,9.30
2023-04-01T16:52:00.438Z,9.30
2023-04-01T16:54:53.337Z,9.30
2023-04-01T16:57:57.500Z,9.30
2023-04-01T17:00:39.209Z,9.30
2023-04-01T17:03:19.426Z,9.20
2023-04-01T17:06:18.642Z,9.20
2023-04-01T17:09:11.246Z,9.20
2023-04-01T17:12:02.682Z,9.20
2023-04-01T17:14:56.691Z,9.20
2023-04-01T17:17:47.442Z,9.20
2023-04-01T17:20:26.840Z,9.10
2023-04-01T17:23:21.473Z,9.10
2023-04-01T17:26:23.567Z,9.10
2023-04-01T17:29:23.761Z,9.00
2023-04-01T17:32:16.502Z,9.00
2023-04-01T17:35:12.762Z,9.00
2023-04-01T17:38:08.823Z,9.00
2023-04-01T17:40:45.264Z,9.00
2023-04-01T17:43:39.600Z,9.00
2023-04-01T17:46:55.397Z,9.00
2023-04-01T17:50:00.194Z,9.00
2023-04-01T17:52:45.345Z,9.00
2023-04-01T17:55:27.341Z,9.00
2023-04-01T17:58:03.587Z,9.00
2023-04-01T18:01:03.011Z,9.00
2023-04-01T18:03:55.104Z,9.00
2023-04-01T18:06:37.314Z,9.00
2023-04-01T18:09:46.652Z,9.00
2023-04-01T18:12:41.746Z,9.00
2023-04-01T18:16:14.877Z,9.00
2023-04-01T18:18:54.577Z,9.00
2023-04-01T18:21:56.605Z,9.00
2023-04-01T18:24:57.755Z,9.00
2023-04-01T18:27:38.597Z,9.00
2023-04-01T18:30:26.978Z,9.00
2023-04-01T18:33:25.035Z,9.00
2023-04-01T18:36:17.868Z,9.00
2023-04-01T18:38:57.719Z,9.00
2023-04-01T18:41:56.993Z,9.00
2023-04-01T18:44:51.133Z,9.00
2023-04-01T18:47:34.634Z,9.00
2023-04-01T18:50:22.591Z,9.00
2023-04-01T18:53:40.411Z,9.00
2023-04-01T18:56:23.839Z,9.00
2023-04-01T18:59:09.638Z,8.90
2023-04-01T19:02:19.069Z,8.90
2023-04-01T19:05:03.852Z,8.90
2023-04-01T19:07:40.506Z,8.90
2023-04-01T19:10:52.469Z,8.90
2023-04-01T19:13:43.175Z,8.90
2023-04-01T19:16:28.615Z,8.90
2023-04-01T19:19:16.334Z,8.90
2023-04-01T19:22:03.270Z,9.00
2023-04-01T19:25:13.451Z,9.00
2023-04-01T19:28:04.965Z,8.90
2023-04-01T19:30:55.160Z,8.90
2023-04-01T19:33:47.884Z,8.90
2023-04-01T19:36:34.008Z,8.90
2023-04-01T19:40:00.764Z,8.90
2023-04-01T19:42:54.935Z,8.90
2023-04-01T19:45:50.962Z,8.90
2023-04-01T19:48:48.719Z,8.90
2023-04-01T19:51:40.746Z,8.90
2023-04-01T19:54:50.369Z,8.90
2023-04-01T19:57:48.684Z,8.90
2023-04-01T20:00:52.677Z,8.90
2023-04-01T20:03:55.543Z,8.90
2023-04-01T20:06:48.658Z,8.90
2023-04-01T20:10:04.392Z,8.90
2023-04-01T20:12:46.397Z,8.90
2023-04-01T20:15:37.347Z,8.90
2023-04-01T20:18:20.694Z,8.90
2023-04-01T20:21:04.273Z,8.90
2023-04-01T20:23:44.677Z,8.90
2023-04-01T20:26:21.960Z,8.90
2023-04-01T20:29:16.175Z,9.00
2023-04-01T20:31:49.998Z,9.00
2023-04-01T20:34:38.078Z,8.90
2023-04-01T20:37:34.406Z,8.90
2023-04-01T20:40:23.294Z,8.90
2023-04-01T20:43:25.361Z,8.90
2023-04-01T20:46:14.520Z,8.90
2023-04-01T20:49:17.390Z,8.90
2023-04-01T20:52:02.030Z,8.90
2023-04-01T20:54:58.014Z,8.90
2023-04-01T20:57:58.537Z,8.80
2023-04-01T21:01:02.253Z,8.80
2023-04-01T21:03:56.506Z,8.80
2023-04-01T21:06:49.487Z,8.80
2023-04-01T21:09:46.277Z,8.80
2023-04-01T21:12:38.473Z,8.70
2023-04-01T21:16:19.233Z,8.70
2023-04-01T21:19:02.330Z,8.70
2023-04-01T21:22:01.948Z,8.70
2023-04-01T21:25:22.156Z,8.70
2023-04-01T21:28:05.560Z,8.70
2023-04-01T21:31:02.995Z,8.70
2023-04-01T21:33:58.795Z,8.70
2023-04-01T21:37:03.486Z,8.70
2023-04-01T21:40:23.682Z,8.70
2023-04-01T21:43:05.646Z,8.70
2023-04-01T21:49:32.423Z,8.60
2023-04-01T21:52:15.348Z,8.70
2023-04-01T21:55:19.384Z,8.70
2023-04-01T21:58:04.483Z,8.70
2023-04-01T22:01:02.562Z,8.60
2023-04-01T22:03:40.646Z,8.60
2023-04-01T22:06:27.205Z,8.60
2023-04-01T22:09:16.916Z,8.60
2023-04-01T22:12:04.470Z,8.60
2023-04-01T22:14:49.023Z,8.60
2023-04-01T22:17:56.273Z,8.60
2023-04-01T22:20:37.986Z,8.60
2023-04-01T22:23:30.961Z,8.60
2023-04-01T22:26:13.022Z,8.60
2023-04-01T22:29:00.130Z,8.60
2023-04-01T22:32:00.685Z,8.60
2023-04-01T22:34:39.052Z,8.60
2023-04-01T22:37:25.953Z,8.60
2023-04-01T22:40:35.333Z,8.60
2023-04-01T22:43:29.649Z,8.60
2023-04-01T22:46:30.046Z,8.60
2023-04-01T22:49:25.067Z,8.60
2023-04-01T22:52:15.617Z,8.60
2023-04-01T22:54:55.364Z,8.60
2023-04-01T22:57:22.007Z,8.60
2023-04-01T23:00:20.276Z,8.60
2023-04-01T23:03:16.363Z,8.60
2023-04-01T23:05:52.317Z,8.50
2023-04-01T23:08:44.037Z,8.50
2023-04-01T23:11:20.599Z,8.50
2023-04-01T23:13:58.806Z,8.50
2023-04-01T23:16:36.658Z,8.40
2023-04-01T23:19:21.515Z,8.40
2023-04-01T23:22:04.786Z,8.40
2023-04-01T23:25:24.423Z,8.40
2023-04-01T23:28:25.748Z,8.40
2023-04-01T23:30:53.155Z,8.40
2023-04-01T23:33:19.892Z,8.30
2023-04-01T23:35:53.967Z,8.30
2023-04-01T23:38:25.910Z,8.30
2023-04-01T23:40:56.367Z,8.30
2023-04-01T23:43:43.299Z,8.30
2023-04-01T23:46:10.290Z,8.30
2023-04-01T23:48:47.288Z,8.30
2023-04-01T23:51:28.434Z,8.30
2023-04-01T23:54:11.621Z,8.30
2023-04-01T23:56:56.238Z,8.30
2023-04-01T23:59:33.703Z,8.30
